sensor_id;sensor_type;location;lat;lon;timestamp;P1;durP1;ratioP1;P2;durP2;ratioP2
13171;SDS011;6651;53.200;10.432;2023-12-29T00:02:17;6.88;;;2.15;;
13171;SDS011;6651;53.200;10.432;2023-12-29T00:04:43;7.68;;;2.45;;
13171;SDS011;6651;53.200;10.432;2023-12-29T00:07:09;5.20;;;1.95;;
13171;SDS011;6651;53.200;10.432;2023-12-29T00:09:35;4.63;;;2.10;;
13171;SDS011;6651;53.200;10.432;2023-12-29T00:12:05;6.30;;;2.10;;
13171;SDS011;6651;53.200;10.432;2023-12-29T00:14:32;6.65;;;2.30;;
13171;SDS011;6651;53.200;10.432;2023-12-29T00:16:58;6.97;;;2.08;;
13171;SDS011;6651;53.200;10.432;2023-12-29T00:19:24;5.13;;;2.40;;
13171;SDS011;6651;53.200;10.432;2023-12-29T00:21:50;6.28;;;2.10;;
13171;SDS011;6651;53.200;10.432;2023-12-29T00:24:16;4.50;;;2.05;;
13171;SDS011;6651;53.200;10.432;2023-12-29T00:26:43;6.78;;;2.53;;
13171;SDS011;6651;53.200;10.432;2023-12-29T00:29:09;7.18;;;2.75;;
13171;SDS011;6651;53.200;10.432;2023-12-29T00:31:35;8.40;;;2.50;;
13171;SDS011;6651;53.200;10.432;2023-12-29T00:34:01;6.00;;;2.40;;
13171;SDS011;6651;53.200;10.432;2023-12-29T00:36:27;5.88;;;2.10;;
13171;SDS011;6651;53.200;10.432;2023-12-29T00:38:53;8.35;;;2.42;;
13171;SDS011;6651;53.200;10.432;2023-12-29T00:41:19;6.53;;;2.33;;
13171;SDS011;6651;53.200;10.432;2023-12-29T00:43:45;5.03;;;2.35;;
13171;SDS011;6651;53.200;10.432;2023-12-29T00:46:13;6.30;;;2.47;;
13171;SDS011;6651;53.200;10.432;2023-12-29T00:48:39;4.45;;;2.20;;
13171;SDS011;6651;53.200;10.432;2023-12-29T00:51:05;4.78;;;2.30;;
13171;SDS011;6651;53.200;10.432;2023-12-29T00:53:31;7.03;;;2.50;;
13171;SDS011;6651;53.200;10.432;2023-12-29T00:55:59;7.68;;;2.38;;
13171;SDS011;6651;53.200;10.432;2023-12-29T00:58:25;8.23;;;2.80;;
13171;SDS011;6651;53.200;10.432;2023-12-29T01:00:51;6.18;;;2.50;;
13171;SDS011;6651;53.200;10.432;2023-12-29T01:03:17;6.05;;;2.42;;
13171;SDS011;6651;53.200;10.432;2023-12-29T01:05:43;6.53;;;2.70;;
13171;SDS011;6651;53.200;10.432;2023-12-29T01:08:09;6.00;;;2.20;;
13171;SDS011;6651;53.200;10.432;2023-12-29T01:10:35;7.97;;;2.67;;
13171;SDS011;6651;53.200;10.432;2023-12-29T01:13:01;8.50;;;2.60;;
13171;SDS011;6651;53.200;10.432;2023-12-29T01:15:27;8.27;;;2.45;;
13171;SDS011;6651;53.200;10.432;2023-12-29T01:17:53;7.32;;;2.35;;
13171;SDS011;6651;53.200;10.432;2023-12-29T01:20:19;7.78;;;2.63;;
13171;SDS011;6651;53.200;10.432;2023-12-29T01:22:45;8.27;;;2.55;;
13171;SDS011;6651;53.200;10.432;2023-12-29T01:25:11;5.90;;;2.30;;
13171;SDS011;6651;53.200;10.432;2023-12-29T01:27:37;7.38;;;2.42;;
13171;SDS011;6651;53.200;10.432;2023-12-29T01:30:04;7.32;;;2.40;;
13171;SDS011;6651;53.200;10.432;2023-12-29T01:32:30;7.03;;;2.30;;
13171;SDS011;6651;53.200;10.432;2023-12-29T01:34:56;6.25;;;2.03;;
13171;SDS011;6651;53.200;10.432;2023-12-29T01:37:22;4.30;;;2.20;;
13171;SDS011;6651;53.200;10.432;2023-12-29T01:39:48;6.90;;;2.25;;
13171;SDS011;6651;53.200;10.432;2023-12-29T01:42:14;6.45;;;2.22;;
13171;SDS011;6651;53.200;10.432;2023-12-29T01:44:40;5.40;;;2.30;;
13171;SDS011;6651;53.200;10.432;2023-12-29T01:47:15;6.05;;;2.50;;
13171;SDS011;6651;53.200;10.432;2023-12-29T01:49:41;8.00;;;2.47;;
13171;SDS011;6651;53.200;10.432;2023-12-29T01:52:09;5.88;;;2.20;;
13171;SDS011;6651;53.200;10.432;2023-12-29T01:54:35;8.50;;;2.65;;
13171;SDS011;6651;53.200;10.432;2023-12-29T01:57:05;6.97;;;2.30;;
13171;SDS011;6651;53.200;10.432;2023-12-29T01:59:33;6.70;;;2.30;;
13171;SDS011;6651;53.200;10.432;2023-12-29T02:01:59;8.35;;;2.45;;
13171;SDS011;6651;53.200;10.432;2023-12-29T02:04:25;6.35;;;2.80;;
13171;SDS011;6651;53.200;10.432;2023-12-29T02:06:52;7.30;;;2.50;;
13171;SDS011;6651;53.200;10.432;2023-12-29T02:09:18;5.72;;;2.28;;
13171;SDS011;6651;53.200;10.432;2023-12-29T02:11:47;6.38;;;2.35;;
13171;SDS011;6651;53.200;10.432;2023-12-29T02:14:13;4.95;;;2.00;;
13171;SDS011;6651;53.200;10.432;2023-12-29T02:22:03;5.43;;;2.45;;
13171;SDS011;6651;53.200;10.432;2023-12-29T02:24:30;6.85;;;2.28;;
13171;SDS011;6651;53.200;10.432;2023-12-29T02:29:41;6.10;;;2.10;;
13171;SDS011;6651;53.200;10.432;2023-12-29T02:32:10;5.68;;;2.42;;
13171;SDS011;6651;53.200;10.432;2023-12-29T02:34:37;5.93;;;2.05;;
13171;SDS011;6651;53.200;10.432;2023-12-29T02:37:04;5.32;;;2.17;;
13171;SDS011;6651;53.200;10.432;2023-12-29T02:39:30;3.92;;;2.22;;
13171;SDS011;6651;53.200;10.432;2023-12-29T02:41:57;5.70;;;2.40;;
13171;SDS011;6651;53.200;10.432;2023-12-29T02:44:23;5.60;;;2.00;;
13171;SDS011;6651;53.200;10.432;2023-12-29T02:46:49;5.25;;;2.05;;
13171;SDS011;6651;53.200;10.432;2023-12-29T02:49:15;4.35;;;2.20;;
13171;SDS011;6651;53.200;10.432;2023-12-29T02:51:41;6.03;;;2.08;;
13171;SDS011;6651;53.200;10.432;2023-12-29T02:54:09;7.25;;;2.25;;
13171;SDS011;6651;53.200;10.432;2023-12-29T02:56:35;4.25;;;2.00;;
13171;SDS011;6651;53.200;10.432;2023-12-29T02:59:01;6.15;;;2.30;;
13171;SDS011;6651;53.200;10.432;2023-12-29T03:01:27;6.75;;;2.10;;
13171;SDS011;6651;53.200;10.432;2023-12-29T03:03:54;4.35;;;2.05;;
13171;SDS011;6651;53.200;10.432;2023-12-29T03:06:20;6.93;;;2.40;;
13171;SDS011;6651;53.200;10.432;2023-12-29T03:08:46;4.57;;;2.15;;
13171;SDS011;6651;53.200;10.432;2023-12-29T03:11:12;4.85;;;2.20;;
13171;SDS011;6651;53.200;10.432;2023-12-29T03:13:38;6.47;;;2.45;;
13171;SDS011;6651;53.200;10.432;2023-12-29T03:16:04;5.53;;;2.15;;
13171;SDS011;6651;53.200;10.432;2023-12-29T03:18:29;6.00;;;2.40;;
13171;SDS011;6651;53.200;10.432;2023-12-29T03:20:55;8.40;;;2.38;;
13171;SDS011;6651;53.200;10.432;2023-12-29T03:23:21;8.23;;;2.70;;
13171;SDS011;6651;53.200;10.432;2023-12-29T03:25:47;5.32;;;2.60;;
13171;SDS011;6651;53.200;10.432;2023-12-29T03:28:13;7.30;;;2.53;;
13171;SDS011;6651;53.200;10.432;2023-12-29T03:30:39;7.05;;;2.50;;
13171;SDS011;6651;53.200;10.432;2023-12-29T03:33:05;9.50;;;2.80;;
13171;SDS011;6651;53.200;10.432;2023-12-29T03:35:31;7.47;;;2.78;;
13171;SDS011;6651;53.200;10.432;2023-12-29T03:37:57;7.75;;;2.33;;
13171;SDS011;6651;53.200;10.432;2023-12-29T03:40:23;6.80;;;2.72;;
13171;SDS011;6651;53.200;10.432;2023-12-29T03:42:49;5.97;;;2.50;;
13171;SDS011;6651;53.200;10.432;2023-12-29T03:45:15;8.25;;;2.85;;
13171;SDS011;6651;53.200;10.432;2023-12-29T03:47:41;7.55;;;2.55;;
13171;SDS011;6651;53.200;10.432;2023-12-29T03:50:07;9.88;;;2.78;;
13171;SDS011;6651;53.200;10.432;2023-12-29T03:52:33;8.23;;;2.50;;
13171;SDS011;6651;53.200;10.432;2023-12-29T03:54:59;8.38;;;2.75;;
13171;SDS011;6651;53.200;10.432;2023-12-29T03:57:25;6.30;;;2.58;;
13171;SDS011;6651;53.200;10.432;2023-12-29T03:59:51;5.63;;;2.30;;
13171;SDS011;6651;53.200;10.432;2023-12-29T04:02:17;5.75;;;2.58;;
13171;SDS011;6651;53.200;10.432;2023-12-29T04:04:43;5.97;;;2.40;;
13171;SDS011;6651;53.200;10.432;2023-12-29T04:07:09;7.72;;;2.33;;
13171;SDS011;6651;53.200;10.432;2023-12-29T04:09:35;7.93;;;2.47;;
13171;SDS011;6651;53.200;10.432;2023-12-29T04:12:01;8.05;;;2.50;;
13171;SDS011;6651;53.200;10.432;2023-12-29T04:14:27;5.72;;;2.20;;
13171;SDS011;6651;53.200;10.432;2023-12-29T04:16:53;6.40;;;2.35;;
13171;SDS011;6651;53.200;10.432;2023-12-29T04:19:19;7.38;;;2.80;;
13171;SDS011;6651;53.200;10.432;2023-12-29T04:21:45;7.50;;;2.83;;
13171;SDS011;6651;53.200;10.432;2023-12-29T04:24:11;5.80;;;2.88;;
13171;SDS011;6651;53.200;10.432;2023-12-29T04:26:37;9.38;;;2.83;;
13171;SDS011;6651;53.200;10.432;2023-12-29T04:29:03;5.50;;;2.50;;
13171;SDS011;6651;53.200;10.432;2023-12-29T04:31:29;8.43;;;2.70;;
13171;SDS011;6651;53.200;10.432;2023-12-29T04:33:55;6.53;;;2.65;;
13171;SDS011;6651;53.200;10.432;2023-12-29T04:36:21;8.82;;;3.28;;
13171;SDS011;6651;53.200;10.432;2023-12-29T04:38:47;7.95;;;3.10;;
13171;SDS011;6651;53.200;10.432;2023-12-29T04:41:13;5.55;;;2.47;;
13171;SDS011;6651;53.200;10.432;2023-12-29T04:43:39;6.43;;;2.60;;
13171;SDS011;6651;53.200;10.432;2023-12-29T04:46:06;7.30;;;2.97;;
13171;SDS011;6651;53.200;10.432;2023-12-29T04:48:32;8.48;;;2.42;;
13171;SDS011;6651;53.200;10.432;2023-12-29T04:50:58;5.97;;;2.58;;
13171;SDS011;6651;53.200;10.432;2023-12-29T04:53:24;8.25;;;2.80;;
13171;SDS011;6651;53.200;10.432;2023-12-29T04:55:50;5.85;;;2.10;;
13171;SDS011;6651;53.200;10.432;2023-12-29T04:58:16;4.03;;;1.40;;
13171;SDS011;6651;53.200;10.432;2023-12-29T05:00:42;1.77;;;1.20;;
13171;SDS011;6651;53.200;10.432;2023-12-29T05:03:08;3.70;;;1.15;;
13171;SDS011;6651;53.200;10.432;2023-12-29T05:05:34;2.80;;;1.20;;
13171;SDS011;6651;53.200;10.432;2023-12-29T05:08:00;1.50;;;0.82;;
13171;SDS011;6651;53.200;10.432;2023-12-29T05:10:26;2.88;;;1.13;;
13171;SDS011;6651;53.200;10.432;2023-12-29T05:12:52;1.60;;;0.70;;
13171;SDS011;6651;53.200;10.432;2023-12-29T05:15:18;1.77;;;0.80;;
13171;SDS011;6651;53.200;10.432;2023-12-29T05:17:44;1.48;;;0.52;;
13171;SDS011;6651;53.200;10.432;2023-12-29T05:20:10;2.33;;;0.73;;
13171;SDS011;6651;53.200;10.432;2023-12-29T05:22:36;2.42;;;0.88;;
13171;SDS011;6651;53.200;10.432;2023-12-29T05:25:02;3.03;;;0.88;;
13171;SDS011;6651;53.200;10.432;2023-12-29T05:27:28;1.75;;;0.70;;
13171;SDS011;6651;53.200;10.432;2023-12-29T05:29:54;1.73;;;0.73;;
13171;SDS011;6651;53.200;10.432;2023-12-29T05:32:20;1.77;;;0.85;;
13171;SDS011;6651;53.200;10.432;2023-12-29T05:34:46;1.75;;;1.02;;
13171;SDS011;6651;53.200;10.432;2023-12-29T05:37:12;2.28;;;1.00;;
13171;SDS011;6651;53.200;10.432;2023-12-29T05:39:41;2.20;;;0.80;;
13171;SDS011;6651;53.200;10.432;2023-12-29T05:42:07;2.83;;;1.00;;
13171;SDS011;6651;53.200;10.432;2023-12-29T05:44:35;2.60;;;1.02;;
13171;SDS011;6651;53.200;10.432;2023-12-29T05:47:02;2.17;;;0.90;;
13171;SDS011;6651;53.200;10.432;2023-12-29T05:49:28;1.88;;;1.10;;
13171;SDS011;6651;53.200;10.432;2023-12-29T05:51:54;1.85;;;1.20;;
13171;SDS011;6651;53.200;10.432;2023-12-29T05:54:20;2.95;;;1.05;;
13171;SDS011;6651;53.200;10.432;2023-12-29T05:56:46;2.55;;;1.25;;
13171;SDS011;6651;53.200;10.432;2023-12-29T05:59:12;3.13;;;1.20;;
13171;SDS011;6651;53.200;10.432;2023-12-29T06:01:38;2.58;;;1.13;;
13171;SDS011;6651;53.200;10.432;2023-12-29T06:04:04;1.77;;;0.95;;
13171;SDS011;6651;53.200;10.432;2023-12-29T06:06:30;2.97;;;1.20;;
13171;SDS011;6651;53.200;10.432;2023-12-29T06:08:56;3.20;;;1.30;;
13171;SDS011;6651;53.200;10.432;2023-12-29T06:11:22;2.80;;;1.25;;
13171;SDS011;6651;53.200;10.432;2023-12-29T06:13:48;3.58;;;1.70;;
13171;SDS011;6651;53.200;10.432;2023-12-29T06:16:23;3.25;;;1.25;;
13171;SDS011;6651;53.200;10.432;2023-12-29T06:18:51;5.25;;;1.50;;
13171;SDS011;6651;53.200;10.432;2023-12-29T06:21:18;3.78;;;1.70;;
13171;SDS011;6651;53.200;10.432;2023-12-29T06:23:44;3.90;;;1.63;;
13171;SDS011;6651;53.200;10.432;2023-12-29T06:26:15;3.75;;;1.83;;
13171;SDS011;6651;53.200;10.432;2023-12-29T06:28:41;6.30;;;2.28;;
13171;SDS011;6651;53.200;10.432;2023-12-29T06:31:07;6.13;;;2.00;;
13171;SDS011;6651;53.200;10.432;2023-12-29T06:33:33;2.85;;;2.20;;
13171;SDS011;6651;53.200;10.432;2023-12-29T06:35:59;7.78;;;2.50;;
13171;SDS011;6651;53.200;10.432;2023-12-29T06:38:26;7.70;;;2.75;;
13171;SDS011;6651;53.200;10.432;2023-12-29T06:40:52;6.55;;;2.42;;
13171;SDS011;6651;53.200;10.432;2023-12-29T06:43:18;7.80;;;2.47;;
13171;SDS011;6651;53.200;10.432;2023-12-29T06:45:44;8.27;;;2.42;;
13171;SDS011;6651;53.200;10.432;2023-12-29T06:48:10;7.05;;;2.67;;
13171;SDS011;6651;53.200;10.432;2023-12-29T06:50:36;8.85;;;2.70;;
13171;SDS011;6651;53.200;10.432;2023-12-29T06:53:02;12.48;;;2.70;;
13171;SDS011;6651;53.200;10.432;2023-12-29T06:55:28;7.70;;;2.53;;
13171;SDS011;6651;53.200;10.432;2023-12-29T06:57:54;7.45;;;2.60;;
13171;SDS011;6651;53.200;10.432;2023-12-29T07:00:20;8.50;;;3.00;;
13171;SDS011;6651;53.200;10.432;2023-12-29T07:02:46;7.93;;;2.90;;
13171;SDS011;6651;53.200;10.432;2023-12-29T07:05:12;5.15;;;2.38;;
13171;SDS011;6651;53.200;10.432;2023-12-29T07:07:38;8.40;;;2.95;;
13171;SDS011;6651;53.200;10.432;2023-12-29T07:10:04;9.82;;;3.00;;
13171;SDS011;6651;53.200;10.432;2023-12-29T07:12:31;5.90;;;2.53;;
13171;SDS011;6651;53.200;10.432;2023-12-29T07:14:57;7.65;;;2.60;;
13171;SDS011;6651;53.200;10.432;2023-12-29T07:17:23;8.85;;;2.88;;
13171;SDS011;6651;53.200;10.432;2023-12-29T07:19:49;11.00;;;2.78;;
13171;SDS011;6651;53.200;10.432;2023-12-29T07:22:15;9.18;;;2.90;;
13171;SDS011;6651;53.200;10.432;2023-12-29T07:24:41;11.55;;;3.13;;
13171;SDS011;6651;53.200;10.432;2023-12-29T07:27:07;8.73;;;2.70;;
13171;SDS011;6651;53.200;10.432;2023-12-29T07:29:33;8.43;;;2.72;;
13171;SDS011;6651;53.200;10.432;2023-12-29T07:31:59;7.50;;;2.78;;
13171;SDS011;6651;53.200;10.432;2023-12-29T07:34:25;8.55;;;3.22;;
13171;SDS011;6651;53.200;10.432;2023-12-29T07:36:52;8.30;;;2.85;;
13171;SDS011;6651;53.200;10.432;2023-12-29T07:39:18;7.30;;;2.80;;
13171;SDS011;6651;53.200;10.432;2023-12-29T07:41:44;8.00;;;2.80;;
13171;SDS011;6651;53.200;10.432;2023-12-29T07:44:10;8.45;;;2.90;;
13171;SDS011;6651;53.200;10.432;2023-12-29T07:46:37;11.27;;;2.85;;
13171;SDS011;6651;53.200;10.432;2023-12-29T07:49:04;9.18;;;2.92;;
13171;SDS011;6651;53.200;10.432;2023-12-29T07:51:30;7.82;;;2.70;;
13171;SDS011;6651;53.200;10.432;2023-12-29T07:53:56;6.78;;;2.45;;
13171;SDS011;6651;53.200;10.432;2023-12-29T07:56:22;7.88;;;2.50;;
13171;SDS011;6651;53.200;10.432;2023-12-29T07:58:48;10.23;;;3.00;;
13171;SDS011;6651;53.200;10.432;2023-12-29T08:01:14;8.55;;;2.60;;
13171;SDS011;6651;53.200;10.432;2023-12-29T08:03:40;8.82;;;2.88;;
13171;SDS011;6651;53.200;10.432;2023-12-29T08:06:06;8.80;;;2.67;;
13171;SDS011;6651;53.200;10.432;2023-12-29T08:08:35;10.85;;;2.80;;
13171;SDS011;6651;53.200;10.432;2023-12-29T08:11:01;7.53;;;2.60;;
13171;SDS011;6651;53.200;10.432;2023-12-29T08:13:27;11.30;;;3.35;;
13171;SDS011;6651;53.200;10.432;2023-12-29T08:15:53;7.85;;;2.70;;
13171;SDS011;6651;53.200;10.432;2023-12-29T08:18:19;9.13;;;3.10;;
13171;SDS011;6651;53.200;10.432;2023-12-29T08:20:45;7.65;;;2.75;;
13171;SDS011;6651;53.200;10.432;2023-12-29T08:23:11;10.77;;;3.25;;
13171;SDS011;6651;53.200;10.432;2023-12-29T08:25:37;9.40;;;3.00;;
13171;SDS011;6651;53.200;10.432;2023-12-29T08:28:03;9.32;;;2.90;;
13171;SDS011;6651;53.200;10.432;2023-12-29T08:30:30;8.68;;;2.83;;
13171;SDS011;6651;53.200;10.432;2023-12-29T08:32:56;9.50;;;2.95;;
13171;SDS011;6651;53.200;10.432;2023-12-29T08:35:22;8.50;;;2.90;;
13171;SDS011;6651;53.200;10.432;2023-12-29T08:37:48;7.13;;;3.05;;
13171;SDS011;6651;53.200;10.432;2023-12-29T08:40:14;9.73;;;3.13;;
13171;SDS011;6651;53.200;10.432;2023-12-29T08:42:41;8.77;;;3.15;;
13171;SDS011;6651;53.200;10.432;2023-12-29T08:45:07;10.15;;;2.70;;
13171;SDS011;6651;53.200;10.432;2023-12-29T08:47:33;10.48;;;3.70;;
13171;SDS011;6651;53.200;10.432;2023-12-29T08:49:59;9.48;;;2.72;;
13171;SDS011;6651;53.200;10.432;2023-12-29T08:52:26;11.85;;;3.22;;
13171;SDS011;6651;53.200;10.432;2023-12-29T08:54:52;9.73;;;3.10;;
13171;SDS011;6651;53.200;10.432;2023-12-29T08:57:19;10.43;;;2.95;;
13171;SDS011;6651;53.200;10.432;2023-12-29T08:59:45;12.07;;;3.38;;
13171;SDS011;6651;53.200;10.432;2023-12-29T09:02:11;11.00;;;2.88;;
13171;SDS011;6651;53.200;10.432;2023-12-29T09:04:37;11.70;;;2.97;;
13171;SDS011;6651;53.200;10.432;2023-12-29T09:07:03;11.10;;;2.80;;
13171;SDS011;6651;53.200;10.432;2023-12-29T09:09:30;10.23;;;3.28;;
13171;SDS011;6651;53.200;10.432;2023-12-29T09:11:56;10.10;;;3.10;;
13171;SDS011;6651;53.200;10.432;2023-12-29T09:14:22;8.65;;;3.08;;
13171;SDS011;6651;53.200;10.432;2023-12-29T09:16:48;10.48;;;2.88;;
13171;SDS011;6651;53.200;10.432;2023-12-29T09:19:15;9.95;;;2.67;;
13171;SDS011;6651;53.200;10.432;2023-12-29T09:21:41;8.38;;;2.80;;
13171;SDS011;6651;53.200;10.432;2023-12-29T09:24:07;6.90;;;2.83;;
13171;SDS011;6651;53.200;10.432;2023-12-29T09:26:33;11.75;;;2.88;;
13171;SDS011;6651;53.200;10.432;2023-12-29T09:28:59;8.63;;;2.88;;
13171;SDS011;6651;53.200;10.432;2023-12-29T09:31:25;11.65;;;3.20;;
13171;SDS011;6651;53.200;10.432;2023-12-29T09:33:51;11.85;;;3.25;;
13171;SDS011;6651;53.200;10.432;2023-12-29T09:36:17;9.73;;;3.08;;
13171;SDS011;6651;53.200;10.432;2023-12-29T09:38:43;11.52;;;3.08;;
13171;SDS011;6651;53.200;10.432;2023-12-29T09:41:11;12.27;;;2.92;;
13171;SDS011;6651;53.200;10.432;2023-12-29T09:43:39;11.45;;;3.22;;
13171;SDS011;6651;53.200;10.432;2023-12-29T09:46:07;11.93;;;2.97;;
13171;SDS011;6651;53.200;10.432;2023-12-29T09:48:34;11.73;;;3.33;;
13171;SDS011;6651;53.200;10.432;2023-12-29T09:51:05;10.85;;;3.00;;
13171;SDS011;6651;53.200;10.432;2023-12-29T09:53:32;10.85;;;2.75;;
13171;SDS011;6651;53.200;10.432;2023-12-29T09:55:58;5.22;;;1.95;;
13171;SDS011;6651;53.200;10.432;2023-12-29T09:58:26;4.60;;;1.80;;
13171;SDS011;6651;53.200;10.432;2023-12-29T10:00:52;2.28;;;1.20;;
13171;SDS011;6651;53.200;10.432;2023-12-29T10:03:18;5.97;;;1.60;;
13171;SDS011;6651;53.200;10.432;2023-12-29T10:05:45;3.65;;;1.60;;
13171;SDS011;6651;53.200;10.432;2023-12-29T10:08:13;3.75;;;1.35;;
13171;SDS011;6651;53.200;10.432;2023-12-29T10:10:39;6.03;;;1.90;;
13171;SDS011;6651;53.200;10.432;2023-12-29T10:13:08;6.80;;;2.08;;
13171;SDS011;6651;53.200;10.432;2023-12-29T10:21:01;5.13;;;1.73;;
13171;SDS011;6651;53.200;10.432;2023-12-29T10:23:35;4.07;;;2.00;;
13171;SDS011;6651;53.200;10.432;2023-12-29T10:26:02;4.32;;;1.90;;
13171;SDS011;6651;53.200;10.432;2023-12-29T10:28:28;3.05;;;1.55;;
13171;SDS011;6651;53.200;10.432;2023-12-29T10:30:54;3.85;;;1.70;;
13171;SDS011;6651;53.200;10.432;2023-12-29T10:33:20;3.25;;;1.75;;
13171;SDS011;6651;53.200;10.432;2023-12-29T10:35:56;4.95;;;2.00;;
13171;SDS011;6651;53.200;10.432;2023-12-29T10:38:23;3.28;;;1.30;;
13171;SDS011;6651;53.200;10.432;2023-12-29T10:40:50;3.15;;;1.65;;
13171;SDS011;6651;53.200;10.432;2023-12-29T10:43:21;5.35;;;1.25;;
13171;SDS011;6651;53.200;10.432;2023-12-29T10:45:47;2.90;;;1.70;;
13171;SDS011;6651;53.200;10.432;2023-12-29T10:48:15;4.20;;;1.63;;
13171;SDS011;6651;53.200;10.432;2023-12-29T10:50:47;3.92;;;1.40;;
13171;SDS011;6651;53.200;10.432;2023-12-29T10:53:14;5.55;;;1.40;;
13171;SDS011;6651;53.200;10.432;2023-12-29T10:55:43;4.68;;;1.60;;
13171;SDS011;6651;53.200;10.432;2023-12-29T10:58:09;3.53;;;1.08;;
13171;SDS011;6651;53.200;10.432;2023-12-29T11:00:35;4.25;;;1.52;;
13171;SDS011;6651;53.200;10.432;2023-12-29T11:03:01;3.65;;;1.33;;
13171;SDS011;6651;53.200;10.432;2023-12-29T11:05:27;2.50;;;1.20;;
13171;SDS011;6651;53.200;10.432;2023-12-29T11:07:54;5.78;;;1.70;;
13171;SDS011;6651;53.200;10.432;2023-12-29T11:10:20;4.13;;;1.58;;
13171;SDS011;6651;53.200;10.432;2023-12-29T11:12:47;4.32;;;1.77;;
13171;SDS011;6651;53.200;10.432;2023-12-29T11:15:13;4.55;;;1.40;;
13171;SDS011;6651;53.200;10.432;2023-12-29T11:17:41;4.22;;;1.67;;
13171;SDS011;6651;53.200;10.432;2023-12-29T11:20:14;4.07;;;1.90;;
13171;SDS011;6651;53.200;10.432;2023-12-29T11:22:41;7.07;;;1.88;;
13171;SDS011;6651;53.200;10.432;2023-12-29T11:25:07;4.38;;;2.03;;
13171;SDS011;6651;53.200;10.432;2023-12-29T11:27:34;3.72;;;1.60;;
13171;SDS011;6651;53.200;10.432;2023-12-29T11:30:00;4.30;;;2.05;;
13171;SDS011;6651;53.200;10.432;2023-12-29T11:32:32;5.35;;;1.95;;
13171;SDS011;6651;53.200;10.432;2023-12-29T11:35:06;5.05;;;1.92;;
13171;SDS011;6651;53.200;10.432;2023-12-29T11:40:22;3.90;;;1.67;;
13171;SDS011;6651;53.200;10.432;2023-12-29T11:42:51;4.57;;;1.77;;
13171;SDS011;6651;53.200;10.432;2023-12-29T11:47:51;5.05;;;1.85;;
13171;SDS011;6651;53.200;10.432;2023-12-29T11:50:31;5.63;;;1.88;;
13171;SDS011;6651;53.200;10.432;2023-12-29T11:52:58;4.50;;;1.65;;
13171;SDS011;6651;53.200;10.432;2023-12-29T11:55:34;3.35;;;1.48;;
13171;SDS011;6651;53.200;10.432;2023-12-29T11:58:01;5.18;;;1.70;;
13171;SDS011;6651;53.200;10.432;2023-12-29T12:03:44;6.45;;;1.98;;
13171;SDS011;6651;53.200;10.432;2023-12-29T12:06:03;5.32;;;2.20;;
13171;SDS011;6651;53.200;10.432;2023-12-29T12:08:30;4.60;;;1.80;;
13171;SDS011;6651;53.200;10.432;2023-12-29T12:10:56;5.90;;;1.58;;
13171;SDS011;6651;53.200;10.432;2023-12-29T12:13:42;3.15;;;1.27;;
13171;SDS011;6651;53.200;10.432;2023-12-29T12:16:08;5.40;;;1.63;;
13171;SDS011;6651;53.200;10.432;2023-12-29T12:18:34;5.38;;;1.77;;
13171;SDS011;6651;53.200;10.432;2023-12-29T12:21:00;4.18;;;1.25;;
13171;SDS011;6651;53.200;10.432;2023-12-29T12:23:26;5.15;;;1.67;;
13171;SDS011;6651;53.200;10.432;2023-12-29T12:25:57;2.50;;;1.50;;
13171;SDS011;6651;53.200;10.432;2023-12-29T12:28:28;5.00;;;1.90;;
13171;SDS011;6651;53.200;10.432;2023-12-29T12:31:04;4.63;;;1.67;;
13171;SDS011;6651;53.200;10.432;2023-12-29T12:33:32;3.13;;;1.08;;
13171;SDS011;6651;53.200;10.432;2023-12-29T12:36:01;2.33;;;1.30;;
13171;SDS011;6651;53.200;10.432;2023-12-29T12:38:27;2.75;;;1.20;;
13171;SDS011;6651;53.200;10.432;2023-12-29T12:40:55;3.10;;;1.63;;
13171;SDS011;6651;53.200;10.432;2023-12-29T12:43:22;3.00;;;1.60;;
13171;SDS011;6651;53.200;10.432;2023-12-29T12:45:53;5.05;;;1.67;;
13171;SDS011;6651;53.200;10.432;2023-12-29T12:48:21;4.15;;;1.50;;
13171;SDS011;6651;53.200;10.432;2023-12-29T12:50:47;3.85;;;1.67;;
13171;SDS011;6651;53.200;10.432;2023-12-29T12:53:14;3.67;;;1.80;;
13171;SDS011;6651;53.200;10.432;2023-12-29T12:55:49;5.72;;;1.33;;
13171;SDS011;6651;53.200;10.432;2023-12-29T12:58:19;4.70;;;1.50;;
13171;SDS011;6651;53.200;10.432;2023-12-29T13:00:48;2.80;;;1.48;;
13171;SDS011;6651;53.200;10.432;2023-12-29T13:03:14;4.40;;;1.23;;
13171;SDS011;6651;53.200;10.432;2023-12-29T13:05:41;3.60;;;1.40;;
13171;SDS011;6651;53.200;10.432;2023-12-29T13:08:07;3.97;;;1.60;;
13171;SDS011;6651;53.200;10.432;2023-12-29T13:10:33;3.88;;;1.17;;
13171;SDS011;6651;53.200;10.432;2023-12-29T13:12:59;1.67;;;1.10;;
13171;SDS011;6651;53.200;10.432;2023-12-29T13:15:25;4.70;;;1.50;;
13171;SDS011;6651;53.200;10.432;2023-12-29T13:17:51;3.53;;;1.70;;
13171;SDS011;6651;53.200;10.432;2023-12-29T13:20:18;1.83;;;1.02;;
13171;SDS011;6651;53.200;10.432;2023-12-29T13:22:47;2.45;;;1.40;;
13171;SDS011;6651;53.200;10.432;2023-12-29T13:25:17;5.10;;;1.45;;
13171;SDS011;6651;53.200;10.432;2023-12-29T13:27:44;2.78;;;1.25;;
13171;SDS011;6651;53.200;10.432;2023-12-29T13:30:10;2.60;;;1.23;;
13171;SDS011;6651;53.200;10.432;2023-12-29T13:32:37;3.38;;;1.45;;
13171;SDS011;6651;53.200;10.432;2023-12-29T13:37:36;3.47;;;1.27;;
13171;SDS011;6651;53.200;10.432;2023-12-29T13:42:52;4.53;;;1.33;;
13171;SDS011;6651;53.200;10.432;2023-12-29T13:45:20;3.08;;;1.30;;
13171;SDS011;6651;53.200;10.432;2023-12-29T13:47:46;3.22;;;1.50;;
13171;SDS011;6651;53.200;10.432;2023-12-29T13:50:12;6.18;;;1.85;;
13171;SDS011;6651;53.200;10.432;2023-12-29T13:52:38;3.25;;;1.30;;
13171;SDS011;6651;53.200;10.432;2023-12-29T13:55:05;3.47;;;1.40;;
13171;SDS011;6651;53.200;10.432;2023-12-29T13:57:34;4.15;;;1.70;;
13171;SDS011;6651;53.200;10.432;2023-12-29T14:02:41;4.15;;;1.45;;
13171;SDS011;6651;53.200;10.432;2023-12-29T14:05:11;7.35;;;1.73;;
13171;SDS011;6651;53.200;10.432;2023-12-29T14:07:52;6.28;;;1.80;;
13171;SDS011;6651;53.200;10.432;2023-12-29T14:10:18;5.45;;;2.00;;
13171;SDS011;6651;53.200;10.432;2023-12-29T14:12:44;6.13;;;2.05;;
13171;SDS011;6651;53.200;10.432;2023-12-29T14:15:11;5.82;;;2.13;;
13171;SDS011;6651;53.200;10.432;2023-12-29T14:17:37;5.55;;;2.00;;
13171;SDS011;6651;53.200;10.432;2023-12-29T14:20:05;7.82;;;1.92;;
13171;SDS011;6651;53.200;10.432;2023-12-29T14:22:35;6.25;;;1.80;;
13171;SDS011;6651;53.200;10.432;2023-12-29T14:25:04;6.60;;;2.05;;
13171;SDS011;6651;53.200;10.432;2023-12-29T14:27:31;5.68;;;1.70;;
13171;SDS011;6651;53.200;10.432;2023-12-29T14:29:57;5.15;;;1.92;;
13171;SDS011;6651;53.200;10.432;2023-12-29T14:32:23;5.35;;;1.98;;
13171;SDS011;6651;53.200;10.432;2023-12-29T14:34:50;7.55;;;1.95;;
13171;SDS011;6651;53.200;10.432;2023-12-29T14:37:18;4.63;;;1.73;;
13171;SDS011;6651;53.200;10.432;2023-12-29T14:39:48;6.65;;;1.90;;
13171;SDS011;6651;53.200;10.432;2023-12-29T14:42:14;6.07;;;2.00;;
13171;SDS011;6651;53.200;10.432;2023-12-29T14:44:40;4.68;;;1.63;;
13171;SDS011;6651;53.200;10.432;2023-12-29T14:47:06;4.78;;;1.40;;
13171;SDS011;6651;53.200;10.432;2023-12-29T14:49:32;4.95;;;1.42;;
13171;SDS011;6651;53.200;10.432;2023-12-29T14:51:58;4.47;;;1.75;;
13171;SDS011;6651;53.200;10.432;2023-12-29T14:54:24;3.05;;;1.52;;
13171;SDS011;6651;53.200;10.432;2023-12-29T14:56:50;2.53;;;1.38;;
13171;SDS011;6651;53.200;10.432;2023-12-29T14:59:16;4.43;;;1.73;;
13171;SDS011;6651;53.200;10.432;2023-12-29T15:01:42;7.30;;;1.83;;
13171;SDS011;6651;53.200;10.432;2023-12-29T15:04:08;7.13;;;1.73;;
13171;SDS011;6651;53.200;10.432;2023-12-29T15:06:38;3.33;;;1.73;;
13171;SDS011;6651;53.200;10.432;2023-12-29T15:09:04;3.80;;;1.70;;
13171;SDS011;6651;53.200;10.432;2023-12-29T15:11:32;4.47;;;1.70;;
13171;SDS011;6651;53.200;10.432;2023-12-29T15:13:58;3.83;;;1.83;;